createdAt,value
2019-02-06T00:00:26.948Z,1022.04
2019-02-06T00:01:25.534Z,1022.06
2019-02-06T00:02:25.505Z,1022.02
2019-02-06T00:03:25.542Z,1022.03
2019-02-06T00:04:25.530Z,1022.02
2019-02-06T00:05:25.505Z,1022.06
2019-02-06T00:06:25.511Z,1022.04
2019-02-06T00:07:25.454Z,1022.08
2019-02-06T00:08:25.435Z,1022.11
2019-02-06T00:09:25.491Z,1022.12
2019-02-06T00:10:25.413Z,1022.16
2019-02-06T00:11:25.406Z,1022.13
2019-02-06T00:12:25.689Z,1022.12
2019-02-06T00:13:25.429Z,1022.13
2019-02-06T00:14:25.463Z,1022.12
2019-02-06T00:15:25.413Z,1022.15
2019-02-06T00:16:25.406Z,1022.16
2019-02-06T00:17:25.367Z,1022.17
2019-02-06T00:18:25.377Z,1022.18
2019-02-06T00:19:25.384Z,1022.17
2019-02-06T00:20:25.346Z,1022.14
2019-02-06T00:21:25.347Z,1022.18
2019-02-06T00:22:25.313Z,1022.17
2019-02-06T00:23:25.334Z,1022.22
2019-02-06T00:24:25.375Z,1022.16
2019-02-06T00:25:25.329Z,1022.14
2019-02-06T00:26:25.311Z,1022.12
2019-02-06T00:27:25.232Z,1022.10
2019-02-06T00:28:25.222Z,1022.11
2019-02-06T00:29:25.248Z,1022.19
2019-02-06T00:30:25.197Z,1022.14
2019-02-06T00:31:25.186Z,1022.17
2019-02-06T00:32:25.251Z,1022.16
2019-02-06T00:33:25.168Z,1022.12
2019-02-06T00:34:25.158Z,1022.11
2019-02-06T00:35:26.207Z,1022.15
2019-02-06T00:36:25.134Z,1022.16
2019-02-06T00:37:25.121Z,1022.14
2019-02-06T00:38:25.115Z,1022.09
2019-02-06T00:39:25.102Z,1022.14
2019-02-06T00:40:25.096Z,1022.15
2019-02-06T00:41:25.104Z,1022.13
2019-02-06T00:42:25.068Z,1022.12
2019-02-06T00:43:25.058Z,1022.17
2019-02-06T00:44:25.049Z,1022.10
2019-02-06T00:45:25.039Z,1022.08
2019-02-06T00:46:25.066Z,1022.07
2019-02-06T00:47:25.016Z,1022.09
2019-02-06T00:48:25.006Z,1022.06
2019-02-06T00:49:24.997Z,1022.04
2019-02-06T00:50:24.983Z,1022.07
2019-02-06T00:51:24.973Z,1022.07
2019-02-06T00:52:24.997Z,1022.07
2019-02-06T00:53:24.959Z,1022.05
2019-02-06T00:54:24.940Z,1022.03
2019-02-06T00:55:24.930Z,1022.04
2019-02-06T00:56:24.921Z,1022.06
2019-02-06T00:57:24.909Z,1022.04
2019-02-06T00:58:24.926Z,1022.02
2019-02-06T00:59:24.886Z,1022.06
2019-02-06T01:00:24.877Z,1022.06
2019-02-06T01:01:24.872Z,1022.05
2019-02-06T01:02:24.856Z,1022.08
2019-02-06T01:03:24.879Z,1022.08
2019-02-06T01:04:24.832Z,1022.07
2019-02-06T01:05:24.824Z,1022.10
2019-02-06T01:06:24.812Z,1022.07
2019-02-06T01:07:24.801Z,1022.14
2019-02-06T01:08:24.790Z,1022.10
2019-02-06T01:09:24.823Z,1022.12
2019-02-06T01:10:24.767Z,1022.12
2019-02-06T01:11:24.757Z,1022.15
2019-02-06T01:12:24.747Z,1022.12
2019-02-06T01:13:24.733Z,1022.15
2019-02-06T01:14:24.725Z,1022.12
2019-02-06T01:15:24.753Z,1022.13
2019-02-06T01:16:24.703Z,1022.14
2019-02-06T01:17:25.948Z,1022.12
2019-02-06T01:18:24.679Z,1022.14
2019-02-06T01:19:24.671Z,1022.12
2019-02-06T01:20:24.660Z,1022.13
2019-02-06T01:21:24.674Z,1022.11
2019-02-06T01:22:24.636Z,1022.09
2019-02-06T01:23:24.627Z,1022.11
2019-02-06T01:24:24.632Z,1022.08
2019-02-06T01:25:24.608Z,1022.06
2019-02-06T01:26:24.631Z,1022.01
2019-02-06T01:27:24.594Z,1022.08
2019-02-06T01:28:24.573Z,1022.07
2019-02-06T01:29:24.570Z,1022.11
2019-02-06T01:30:24.554Z,1022.07
2019-02-06T01:31:24.540Z,1022.13
2019-02-06T01:32:24.567Z,1022.08
2019-02-06T01:33:24.519Z,1022.11
2019-02-06T01:34:24.509Z,1022.13
2019-02-06T01:35:24.498Z,1022.09
2019-02-06T01:36:24.487Z,1022.10
2019-02-06T01:37:24.476Z,1022.12
2019-02-06T01:38:24.505Z,1022.09
2019-02-06T01:39:24.458Z,1022.14
2019-02-06T01:40:24.445Z,1022.10
2019-02-06T01:41:24.434Z,1022.15
2019-02-06T01:42:24.462Z,1022.14
2019-02-06T01:43:24.414Z,1022.14
2019-02-06T01:44:24.444Z,1022.16
2019-02-06T01:45:24.393Z,1022.15
2019-02-06T01:46:24.380Z,1022.18
2019-02-06T01:47:24.454Z,1022.15
2019-02-06T01:48:24.359Z,1022.19
2019-02-06T01:49:24.348Z,1022.14
2019-02-06T01:50:24.382Z,1022.18
2019-02-06T01:51:24.325Z,1022.22
2019-02-06T01:52:24.315Z,1022.12
2019-02-06T01:53:31.335Z,1022.15
2019-02-06T01:54:24.296Z,1022.16
2019-02-06T01:55:24.282Z,1022.19
2019-02-06T01:56:24.296Z,1022.21
2019-02-06T01:57:24.260Z,1022.16
2019-02-06T01:58:24.250Z,1022.16
2019-02-06T01:59:24.238Z,1022.19
2019-02-06T02:00:24.277Z,1022.24
2019-02-06T02:01:24.284Z,1022.18
2019-02-06T02:02:24.206Z,1022.14
2019-02-06T02:03:24.197Z,1022.06
2019-02-06T02:04:24.186Z,1022.16
2019-02-06T02:05:24.176Z,1022.23
2019-02-06T02:06:24.164Z,1022.17
2019-02-06T02:07:24.189Z,1022.12
2019-02-06T02:08:24.143Z,1022.18
2019-02-06T02:09:24.132Z,1022.15
2019-02-06T02:10:24.125Z,1022.12
2019-02-06T02:11:24.112Z,1022.11
2019-02-06T02:12:24.213Z,1022.19
2019-02-06T02:13:24.115Z,1022.09
2019-02-06T02:14:24.078Z,1022.09
2019-02-06T02:15:24.069Z,1022.10
2019-02-06T02:16:24.057Z,1022.09
2019-02-06T02:17:24.048Z,1022.08
2019-02-06T02:18:24.073Z,1022.04
2019-02-06T02:19:24.025Z,1022.04
2019-02-06T02:20:24.016Z,1022.07
2019-02-06T02:21:24.004Z,1022.07
2019-02-06T02:22:23.993Z,1022.08
2019-02-06T02:23:23.983Z,1022.03
2019-02-06T02:24:24.009Z,1022.12
2019-02-06T02:25:23.964Z,1022.12
2019-02-06T02:26:23.950Z,1022.12
2019-02-06T02:27:23.939Z,1022.15
2019-02-06T02:28:23.931Z,1022.10
2019-02-06T02:29:23.918Z,1022.18
2019-02-06T02:30:23.952Z,1022.17
2019-02-06T02:31:23.896Z,1022.19
2019-02-06T02:32:23.888Z,1022.20
2019-02-06T02:33:23.873Z,1022.19
2019-02-06T02:34:23.865Z,1022.16
2019-02-06T02:35:23.852Z,1022.18
2019-02-06T02:36:23.866Z,1022.15
2019-02-06T02:37:23.837Z,1022.14
2019-02-06T02:38:23.820Z,1022.17
2019-02-06T02:39:23.814Z,1022.14
2019-02-06T02:40:23.799Z,1022.17
2019-02-06T02:41:23.825Z,1022.16
2019-02-06T02:42:23.776Z,1022.14
2019-02-06T02:43:23.766Z,1022.18
2019-02-06T02:44:23.754Z,1022.21
2019-02-06T02:45:23.750Z,1022.19
2019-02-06T02:46:23.734Z,1022.17
2019-02-06T02:47:23.758Z,1022.21
2019-02-06T02:48:23.711Z,1022.18
2019-02-06T02:49:23.698Z,1022.16
2019-02-06T02:50:23.688Z,1022.13
2019-02-06T02:51:23.678Z,1022.15
2019-02-06T02:52:23.666Z,1022.07
2019-02-06T02:53:23.680Z,1022.04
2019-02-06T02:54:23.644Z,1022.05
2019-02-06T02:55:23.635Z,1022.11
2019-02-06T02:56:23.622Z,1022.09
2019-02-06T02:57:23.611Z,1022.09
2019-02-06T02:58:23.641Z,1022.08
2019-02-06T02:59:23.593Z,1022.05
2019-02-06T03:00:23.580Z,1022.05
2019-02-06T03:01:23.569Z,1022.05
2019-02-06T03:02:23.558Z,1022.03
2019-02-06T03:03:23.547Z,1022.03
2019-02-06T03:04:23.560Z,1022.06
2019-02-06T03:05:23.528Z,1022.02
2019-02-06T03:06:28.118Z,1022.07
2019-02-06T03:07:24.502Z,1022.06
2019-02-06T03:08:23.591Z,1022.06
2019-02-06T03:09:23.519Z,1022.09
2019-02-06T03:10:23.470Z,1022.05
2019-02-06T03:11:23.459Z,1022.04
2019-02-06T03:12:23.449Z,1022.05
2019-02-06T03:13:23.479Z,1022.06
2019-02-06T03:14:23.428Z,1022.04
2019-02-06T03:15:23.453Z,1022.00
2019-02-06T03:16:23.458Z,1022.04
2019-02-06T03:17:23.395Z,1021.95
2019-02-06T03:18:23.382Z,1022.00
2019-02-06T03:19:23.372Z,1021.95
2019-02-06T03:20:23.363Z,1021.94
2019-02-06T03:21:23.376Z,1021.92
2019-02-06T03:22:23.344Z,1021.93
2019-02-06T03:23:23.333Z,1021.94
2019-02-06T03:24:23.316Z,1021.92
2019-02-06T03:25:23.305Z,1021.92
2019-02-06T03:26:23.337Z,1021.93
2019-02-06T03:27:23.288Z,1021.95
2019-02-06T03:28:23.273Z,1021.92
2019-02-06T03:29:23.278Z,1021.84
2019-02-06T03:30:23.252Z,1021.89
2019-02-06T03:31:23.241Z,1021.85
2019-02-06T03:32:23.266Z,1021.90
2019-02-06T03:33:23.219Z,1021.90
2019-02-06T03:34:23.208Z,1021.90
2019-02-06T03:35:23.198Z,1021.90
2019-02-06T03:36:23.183Z,1021.90
2019-02-06T03:37:23.175Z,1021.88
2019-02-06T03:38:23.201Z,1021.87
2019-02-06T03:39:23.164Z,1021.90
2019-02-06T03:40:23.141Z,1021.89
2019-02-06T03:41:23.127Z,1021.90
2019-02-06T03:42:23.125Z,1021.85
2019-02-06T03:43:23.111Z,1021.89
2019-02-06T03:44:23.121Z,1021.83
2019-02-06T03:45:23.086Z,1021.82
2019-02-06T03:46:23.178Z,1021.82
2019-02-06T03:47:23.064Z,1021.83
2019-02-06T03:48:23.056Z,1021.83
2019-02-06T03:49:23.180Z,1021.79
2019-02-06T03:50:23.066Z,1021.84
2019-02-06T03:51:23.019Z,1021.83
2019-02-06T03:52:23.009Z,1021.83
2019-02-06T03:53:22.998Z,1021.84
2019-02-06T03:54:22.986Z,1021.87
2019-02-06T03:55:23.013Z,1021.88
2019-02-06T03:56:22.965Z,1021.86
2019-02-06T03:57:22.956Z,1021.82
2019-02-06T03:58:22.945Z,1021.86
2019-02-06T03:59:22.932Z,1021.88
2019-02-06T04:00:22.924Z,1021.84
2019-02-06T04:01:22.937Z,1021.86
2019-02-06T04:02:22.902Z,1021.86
2019-02-06T04:03:22.893Z,1021.84
2019-02-06T04:04:22.881Z,1021.82
2019-02-06T04:05:22.865Z,1021.80
2019-02-06T04:06:22.889Z,1021.85
2019-02-06T04:07:22.846Z,1021.83
2019-02-06T04:08:22.835Z,1021.86
2019-02-06T04:09:22.823Z,1021.87
2019-02-06T04:10:22.814Z,1021.88
2019-02-06T04:11:22.802Z,1021.87
2019-02-06T04:12:22.829Z,1021.83
2019-02-06T04:13:22.779Z,1021.84
2019-02-06T04:14:22.771Z,1021.80
2019-02-06T04:15:22.758Z,1021.85
2019-02-06T04:16:22.747Z,1021.80
2019-02-06T04:17:22.735Z,1021.76
2019-02-06T04:18:22.759Z,1021.77
2019-02-06T04:19:22.714Z,1021.75
2019-02-06T04:20:22.702Z,1021.74
2019-02-06T04:21:22.691Z,1021.73
2019-02-06T04:22:22.681Z,1021.76
2019-02-06T04:23:22.679Z,1021.69
2019-02-06T04:24:22.695Z,1021.70
2019-02-06T04:25:22.648Z,1021.69
2019-02-06T04:26:22.638Z,1021.69
2019-02-06T04:27:22.628Z,1021.71
2019-02-06T04:28:22.617Z,1021.71
2019-02-06T04:29:22.605Z,1021.69
2019-02-06T04:30:22.634Z,1021.72
2019-02-06T04:31:22.585Z,1021.68
2019-02-06T04:32:23.517Z,1021.67
2019-02-06T04:33:22.564Z,1021.70
2019-02-06T04:34:22.553Z,1021.75
2019-02-06T04:35:22.543Z,1021.80
2019-02-06T04:36:22.556Z,1021.78
2019-02-06T04:37:22.523Z,1021.77
2019-02-06T04:38:22.510Z,1021.81
2019-02-06T04:39:22.498Z,1021.77
2019-02-06T04:40:22.490Z,1021.75
2019-02-06T04:41:22.514Z,1021.78
2019-02-06T04:42:22.469Z,1021.76
2019-02-06T04:43:22.456Z,1021.73
2019-02-06T04:44:22.446Z,1021.73
2019-02-06T04:45:22.434Z,1021.68
2019-02-06T04:46:22.425Z,1021.69
2019-02-06T04:47:22.457Z,1021.71
2019-02-06T04:48:22.403Z,1021.68
2019-02-06T04:49:22.393Z,1021.69
2019-02-06T04:50:22.382Z,1021.69
2019-02-06T04:51:22.371Z,1021.69
2019-02-06T04:52:22.363Z,1021.64
2019-02-06T04:53:22.376Z,1021.64
2019-02-06T04:54:22.339Z,1021.65
2019-02-06T04:55:22.328Z,1021.66
2019-02-06T04:56:22.319Z,1021.63
2019-02-06T04:57:22.309Z,1021.63
2019-02-06T04:58:22.331Z,1021.63
2019-02-06T04:59:22.287Z,1021.59
2019-02-06T05:00:22.277Z,1021.60
2019-02-06T05:01:22.264Z,1021.58
2019-02-06T05:02:22.255Z,1021.56
2019-02-06T05:03:22.241Z,1021.60
2019-02-06T05:04:22.268Z,1021.59
2019-02-06T05:05:22.222Z,1021.58
2019-02-06T05:06:22.210Z,1021.57
2019-02-06T05:07:22.197Z,1021.55
2019-02-06T05:08:22.195Z,1021.56
2019-02-06T05:09:22.176Z,1021.52
2019-02-06T05:10:22.285Z,1021.50
2019-02-06T05:11:22.155Z,1021.47
2019-02-06T05:12:22.145Z,1021.50
2019-02-06T05:13:22.134Z,1021.49
2019-02-06T05:14:22.123Z,1021.44
2019-02-06T05:15:22.110Z,1021.42
2019-02-06T05:16:22.126Z,1021.47
2019-02-06T05:17:22.091Z,1021.47
2019-02-06T05:18:22.083Z,1021.49
2019-02-06T05:19:22.218Z,1021.48
2019-02-06T05:20:22.061Z,1021.49
2019-02-06T05:21:22.081Z,1021.47
2019-02-06T05:22:22.038Z,1021.50
2019-02-06T05:23:22.024Z,1021.54
2019-02-06T05:24:22.060Z,1021.50
2019-02-06T05:25:22.003Z,1021.50
2019-02-06T05:26:21.992Z,1021.52
2019-02-06T05:27:22.022Z,1021.59
2019-02-06T05:28:21.972Z,1021.54
2019-02-06T05:29:21.961Z,1021.54
2019-02-06T05:30:21.950Z,1021.61
2019-02-06T05:31:21.942Z,1021.61
2019-02-06T05:32:21.927Z,1021.65
2019-02-06T05:33:21.972Z,1021.58
2019-02-06T05:34:21.906Z,1021.58
2019-02-06T05:35:21.894Z,1021.61
2019-02-06T05:36:21.886Z,1021.58
2019-02-06T05:37:31.555Z,1021.61
2019-02-06T05:38:22.898Z,1021.57
2019-02-06T05:39:21.855Z,1021.59
2019-02-06T05:40:21.841Z,1021.63
2019-02-06T05:41:21.830Z,1021.60
2019-02-06T05:42:21.819Z,1021.66
2019-02-06T05:43:21.809Z,1021.66
2019-02-06T05:44:21.833Z,1021.65
2019-02-06T05:45:21.787Z,1021.65
2019-02-06T05:46:21.774Z,1021.64
2019-02-06T05:47:21.768Z,1021.65
2019-02-06T05:48:21.755Z,1021.60
2019-02-06T05:49:21.742Z,1021.62
2019-02-06T05:50:21.766Z,1021.59
2019-02-06T05:51:21.722Z,1021.59
2019-02-06T05:52:21.711Z,1021.65
2019-02-06T05:53:21.701Z,1021.62
2019-02-06T05:54:21.687Z,1021.65
2019-02-06T05:55:21.682Z,1021.66
2019-02-06T05:56:21.702Z,1021.64
2019-02-06T05:57:21.657Z,1021.60
2019-02-06T05:58:21.643Z,1021.60
2019-02-06T05:59:21.632Z,1021.57
2019-02-06T06:00:21.625Z,1021.54
2019-02-06T06:01:21.611Z,1021.50
2019-02-06T06:02:21.638Z,1021.51
2019-02-06T06:03:21.587Z,1021.48
2019-02-06T06:04:21.576Z,1021.50
2019-02-06T06:05:21.570Z,1021.53
2019-02-06T06:06:21.561Z,1021.52
2019-02-06T06:07:21.548Z,1021.58
2019-02-06T06:08:21.559Z,1021.60
2019-02-06T06:09:21.522Z,1021.54
2019-02-06T06:10:21.513Z,1021.57
2019-02-06T06:11:21.500Z,1021.58
2019-02-06T06:12:21.498Z,1021.53
2019-02-06T06:13:21.516Z,1021.51
2019-02-06T06:14:21.471Z,1021.55
2019-02-06T06:15:21.457Z,1021.57
2019-02-06T06:16:21.446Z,1021.59
2019-02-06T06:17:21.436Z,1021.64
2019-02-06T06:18:22.025Z,1021.64
2019-02-06T06:19:21.437Z,1021.63
2019-02-06T06:20:21.402Z,1021.64
2019-02-06T06:21:21.390Z,1021.61
2019-02-06T06:22:21.381Z,1021.54
2019-02-06T06:23:21.374Z,1021.58
2019-02-06T06:24:21.395Z,1021.55
2019-02-06T06:25:21.354Z,1021.49
2019-02-06T06:26:21.337Z,1021.55
2019-02-06T06:27:21.326Z,1021.55
2019-02-06T06:28:21.316Z,1021.57
2019-02-06T06:29:21.306Z,1021.54
2019-02-06T06:30:21.327Z,1021.54
2019-02-06T06:31:21.286Z,1021.55
2019-02-06T06:32:21.274Z,1021.51
2019-02-06T06:33:21.389Z,1021.56
2019-02-06T06:34:21.252Z,1021.55
2019-02-06T06:35:21.277Z,1021.53
2019-02-06T06:36:21.231Z,1021.51
2019-02-06T06:37:21.224Z,1021.51
2019-02-06T06:38:21.210Z,1021.52
2019-02-06T06:39:21.202Z,1021.54
2019-02-06T06:40:21.191Z,1021.49
2019-02-06T06:41:21.214Z,1021.52
2019-02-06T06:42:24.101Z,1021.48
2019-02-06T06:43:21.156Z,1021.52
2019-02-06T06:44:21.146Z,1021.47
2019-02-06T06:45:21.135Z,1021.48
2019-02-06T06:46:21.123Z,1021.43
2019-02-06T06:47:21.153Z,1021.43
2019-02-06T06:48:21.102Z,1021.41
2019-02-06T06:49:21.092Z,1021.39
2019-02-06T06:50:21.079Z,1021.38
2019-02-06T06:51:21.070Z,1021.37
2019-02-06T06:52:21.059Z,1021.40
2019-02-06T06:53:21.073Z,1021.38
2019-02-06T06:54:21.037Z,1021.31
2019-02-06T06:55:21.029Z,1021.32
2019-02-06T06:56:21.020Z,1021.29
2019-02-06T06:57:21.006Z,1021.29
2019-02-06T06:58:21.025Z,1021.33
2019-02-06T06:59:20.982Z,1021.29
2019-02-06T07:00:20.973Z,1021.26
2019-02-06T07:01:20.964Z,1021.26
2019-02-06T07:02:20.951Z,1021.31
2019-02-06T07:03:20.976Z,1021.27
2019-02-06T07:04:20.932Z,1021.30
2019-02-06T07:05:20.920Z,1021.30
2019-02-06T07:06:20.910Z,1021.35
2019-02-06T07:07:20.900Z,1021.35
2019-02-06T07:08:20.889Z,1021.30
2019-02-06T07:09:20.914Z,1021.30
2019-02-06T07:10:20.867Z,1021.30
2019-02-06T07:11:20.858Z,1021.30
2019-02-06T07:12:20.845Z,1021.28
2019-02-06T07:13:20.835Z,1021.31
2019-02-06T07:14:20.824Z,1021.28
2019-02-06T07:15:20.837Z,1021.26
2019-02-06T07:16:20.808Z,1021.26
2019-02-06T07:17:20.792Z,1021.27
2019-02-06T07:18:20.781Z,1021.24
2019-02-06T07:19:20.770Z,1021.25
2019-02-06T07:20:20.839Z,1021.22
2019-02-06T07:21:20.751Z,1021.20
2019-02-06T07:22:20.738Z,1021.24
2019-02-06T07:23:20.732Z,1021.22
2019-02-06T07:24:20.717Z,1021.18
2019-02-06T07:25:20.744Z,1021.16
2019-02-06T07:26:20.701Z,1021.12
2019-02-06T07:27:21.164Z,1021.10
2019-02-06T07:28:20.674Z,1021.04
2019-02-06T07:29:20.661Z,1021.02
2019-02-06T07:30:20.652Z,1020.98
2019-02-06T07:31:20.665Z,1020.98
2019-02-06T07:32:20.629Z,1020.95
2019-02-06T07:33:20.619Z,1020.92
2019-02-06T07:34:20.717Z,1020.94
2019-02-06T07:35:20.597Z,1020.94
2019-02-06T07:36:20.607Z,1020.93
2019-02-06T07:37:20.575Z,1020.95
2019-02-06T07:38:24.409Z,1020.93
2019-02-06T07:39:20.551Z,1020.93
2019-02-06T07:40:20.542Z,1020.96
2019-02-06T07:41:20.568Z,1020.98
2019-02-06T07:42:20.524Z,1021.02
2019-02-06T07:43:20.509Z,1021.05
2019-02-06T07:44:20.499Z,1021.09
2019-02-06T07:45:20.486Z,1021.11
2019-02-06T07:46:20.474Z,1021.15
2019-02-06T07:47:20.504Z,1021.16
2019-02-06T07:48:20.455Z,1021.11
2019-02-06T07:49:20.444Z,1021.17
2019-02-06T07:50:20.434Z,1021.17
2019-02-06T07:51:20.423Z,1021.18
2019-02-06T07:52:20.414Z,1021.18
2019-02-06T07:53:20.438Z,1021.20
2019-02-06T07:54:27.531Z,1021.18
2019-02-06T07:55:20.383Z,1021.16
2019-02-06T07:56:20.370Z,1021.22
2019-02-06T07:57:20.362Z,1021.17
2019-02-06T07:58:20.348Z,1021.20
2019-02-06T07:59:20.371Z,1021.18
2019-02-06T08:00:20.330Z,1021.21
2019-02-06T08:01:20.318Z,1021.20
2019-02-06T08:02:20.307Z,1021.24
2019-02-06T08:03:20.294Z,1021.20
2019-02-06T08:04:20.284Z,1021.19
2019-02-06T08:05:20.299Z,1021.21
2019-02-06T08:06:20.261Z,1021.22
2019-02-06T08:07:20.251Z,1021.20
2019-02-06T08:08:20.240Z,1021.18
2019-02-06T08:09:20.229Z,1021.21
2019-02-06T08:10:20.243Z,1021.19
2019-02-06T08:11:20.210Z,1021.21
2019-02-06T08:12:20.194Z,1021.24
2019-02-06T08:13:20.182Z,1021.18
2019-02-06T08:14:20.173Z,1021.17
2019-02-06T08:15:20.203Z,1021.18
2019-02-06T08:16:20.151Z,1021.20
2019-02-06T08:17:20.139Z,1021.20
2019-02-06T08:18:20.129Z,1021.20
2019-02-06T08:19:20.118Z,1021.19
2019-02-06T08:20:20.106Z,1021.17
2019-02-06T08:21:20.131Z,1021.18
2019-02-06T08:22:20.085Z,1021.15
2019-02-06T08:23:20.073Z,1021.13
2019-02-06T08:24:20.063Z,1021.12
2019-02-06T08:25:20.054Z,1021.10
2019-02-06T08:26:20.040Z,1021.05
2019-02-06T08:27:20.067Z,1021.04
2019-02-06T08:28:20.021Z,1021.04
2019-02-06T08:29:20.010Z,1021.01
2019-02-06T08:30:19.998Z,1021.03
2019-02-06T08:31:19.987Z,1020.99
2019-02-06T08:32:19.975Z,1020.94
2019-02-06T08:33:20.046Z,1020.94
2019-02-06T08:34:19.956Z,1020.94
2019-02-06T08:35:19.943Z,1020.94
2019-02-06T08:36:19.933Z,1020.88
2019-02-06T08:37:19.922Z,1020.91
2019-02-06T08:38:19.910Z,1020.94
2019-02-06T08:39:19.941Z,1020.90
2019-02-06T08:40:19.894Z,1020.96
2019-02-06T08:41:20.011Z,1020.93
2019-02-06T08:42:19.872Z,1020.87
2019-02-06T08:43:19.860Z,1020.85
2019-02-06T08:44:19.849Z,1020.90
2019-02-06T08:45:19.859Z,1020.98
2019-02-06T08:46:19.828Z,1020.82
2019-02-06T08:47:19.815Z,1020.88
2019-02-06T08:48:19.802Z,1020.83
2019-02-06T08:49:19.793Z,1020.79
2019-02-06T08:50:19.806Z,1020.83
2019-02-06T08:51:19.774Z,1020.81
2019-02-06T08:52:19.761Z,1020.77
2019-02-06T08:53:19.750Z,1020.74
2019-02-06T08:54:20.359Z,1020.71
2019-02-06T08:55:19.753Z,1020.74
2019-02-06T08:56:19.718Z,1020.69
2019-02-06T08:57:19.709Z,1020.70
2019-02-06T08:58:19.699Z,1020.67
2019-02-06T08:59:19.687Z,1020.66
2019-02-06T09:00:19.701Z,1020.57
2019-02-06T09:01:19.664Z,1020.59
2019-02-06T09:02:19.654Z,1020.59
2019-02-06T09:03:19.642Z,1020.50
2019-02-06T09:04:19.632Z,1020.55
2019-02-06T09:05:19.660Z,1020.54
2019-02-06T09:06:19.611Z,1020.49
2019-02-06T09:07:19.600Z,1020.55
2019-02-06T09:08:19.589Z,1020.51
2019-02-06T09:09:19.578Z,1020.52
2019-02-06T09:10:19.569Z,1020.55
2019-02-06T09:11:19.596Z,1020.51
2019-02-06T09:12:19.544Z,1020.57
2019-02-06T09:13:19.538Z,1020.61
2019-02-06T09:14:19.522Z,1020.62
2019-02-06T09:15:19.577Z,1020.66
2019-02-06T09:16:19.502Z,1020.70
2019-02-06T09:17:19.527Z,1020.67
2019-02-06T09:18:19.481Z,1020.65
2019-02-06T09:19:19.470Z,1020.71
2019-02-06T09:20:19.459Z,1020.63
2019-02-06T09:21:19.449Z,1020.62
2019-02-06T09:22:19.440Z,1020.60
2019-02-06T09:23:19.461Z,1020.59
2019-02-06T09:24:19.418Z,1020.59
2019-02-06T09:25:19.406Z,1020.57
2019-02-06T09:26:19.395Z,1020.57
2019-02-06T09:27:19.383Z,1020.54
2019-02-06T09:28:19.372Z,1020.50
2019-02-06T09:29:19.398Z,1020.53
2019-02-06T09:30:19.350Z,1020.46
2019-02-06T09:31:19.340Z,1020.48
2019-02-06T09:32:19.335Z,1020.48
2019-02-06T09:33:19.318Z,1020.52
2019-02-06T09:34:19.307Z,1020.52
2019-02-06T09:35:19.322Z,1020.51
2019-02-06T09:36:19.285Z,1020.56
2019-02-06T09:37:19.275Z,1020.53
2019-02-06T09:38:19.263Z,1020.60
2019-02-06T09:39:19.252Z,1020.56
2019-02-06T09:40:19.270Z,1020.54
2019-02-06T09:41:19.231Z,1020.59
2019-02-06T09:42:19.222Z,1020.58
2019-02-06T09:43:19.210Z,1020.53
2019-02-06T09:44:19.243Z,1020.47
2019-02-06T09:45:19.336Z,1020.48
2019-02-06T09:46:19.247Z,1020.43
2019-02-06T09:47:19.169Z,1020.41
2019-02-06T09:48:19.222Z,1020.40
2019-02-06T09:49:19.201Z,1020.44
2019-02-06T09:50:19.138Z,1020.45
2019-02-06T09:51:19.443Z,1020.45
2019-02-06T09:52:19.117Z,1020.48
2019-02-06T09:53:19.120Z,1020.48
2019-02-06T09:54:19.091Z,1020.49
2019-02-06T09:55:19.086Z,1020.47
2019-02-06T09:56:19.075Z,1020.46
2019-02-06T09:57:19.097Z,1020.52
2019-02-06T09:58:19.048Z,1020.45
2019-02-06T09:59:19.039Z,1020.52
2019-02-06T10:00:19.027Z,1020.53
2019-02-06T10:01:21.404Z,1020.48
2019-02-06T10:02:19.008Z,1020.47
2019-02-06T10:03:19.030Z,1020.46
2019-02-06T10:04:18.982Z,1020.51
2019-02-06T10:05:18.971Z,1020.43
2019-02-06T10:06:18.961Z,1020.41
2019-02-06T10:07:18.952Z,1020.43
2019-02-06T10:08:18.939Z,1020.40
2019-02-06T10:09:22.883Z,1020.38
2019-02-06T10:10:18.920Z,1020.38
2019-02-06T10:11:18.912Z,1020.38
2019-02-06T10:12:18.898Z,1020.38
2019-02-06T10:13:18.889Z,1020.31
2019-02-06T10:14:18.953Z,1020.35
2019-02-06T10:15:18.866Z,1020.36
2019-02-06T10:16:20.205Z,1020.34
2019-02-06T10:17:18.843Z,1020.29
2019-02-06T10:18:18.836Z,1020.27
2019-02-06T10:19:18.822Z,1020.23
2019-02-06T10:20:18.842Z,1020.24
2019-02-06T10:21:18.800Z,1020.19
2019-02-06T10:22:18.789Z,1020.14
2019-02-06T10:23:18.793Z,1020.15
2019-02-06T10:24:19.160Z,1020.11
2019-02-06T10:25:18.795Z,1020.08
2019-02-06T10:26:18.748Z,1020.02
2019-02-06T10:27:18.733Z,1020.04
2019-02-06T10:28:18.723Z,1020.00
2019-02-06T10:29:18.714Z,1019.97
2019-02-06T10:30:18.705Z,1019.96
2019-02-06T10:31:18.735Z,1019.92
2019-02-06T10:32:18.684Z,1019.89
2019-02-06T10:33:19.327Z,1019.84
2019-02-06T10:34:18.662Z,1019.85
2019-02-06T10:35:18.663Z,1019.82
2019-02-06T10:36:18.677Z,1019.81
2019-02-06T10:37:18.631Z,1019.80
2019-02-06T10:38:18.618Z,1019.81
2019-02-06T10:39:18.609Z,1019.85
2019-02-06T10:40:18.603Z,1019.77
2019-02-06T10:41:18.586Z,1019.84
2019-02-06T10:42:18.613Z,1019.80
2019-02-06T10:43:18.564Z,1019.83
2019-02-06T10:44:18.553Z,1019.71
2019-02-06T10:45:20.939Z,1019.72
2019-02-06T10:46:18.556Z,1019.75
2019-02-06T10:47:18.520Z,1019.70
2019-02-06T10:48:18.544Z,1019.77
2019-02-06T10:49:18.496Z,1019.62
2019-02-06T10:50:18.489Z,1019.71
2019-02-06T10:51:18.512Z,1019.66
2019-02-06T10:52:18.497Z,1019.62
2019-02-06T10:53:18.536Z,1019.65
2019-02-06T10:54:18.622Z,1019.52
2019-02-06T10:55:18.474Z,1019.55
2019-02-06T10:56:18.420Z,1019.57
2019-02-06T10:57:18.424Z,1019.47
2019-02-06T10:58:18.399Z,1019.46
2019-02-06T10:59:18.388Z,1019.44
2019-02-06T11:00:18.541Z,1019.44
2019-02-06T11:01:18.366Z,1019.35
2019-02-06T11:02:18.354Z,1019.38
2019-02-06T11:03:18.346Z,1019.43
2019-02-06T11:04:18.334Z,1019.44
2019-02-06T11:05:18.324Z,1019.40
2019-02-06T11:06:18.349Z,1019.46
2019-02-06T11:07:18.300Z,1019.42
2019-02-06T11:08:18.297Z,1019.42
2019-02-06T11:09:18.279Z,1019.48
2019-02-06T11:10:18.268Z,1019.38
2019-02-06T11:11:18.257Z,1019.38
2019-02-06T11:12:18.282Z,1019.39
2019-02-06T11:13:18.235Z,1019.32
2019-02-06T11:14:18.223Z,1019.33
2019-02-06T11:15:18.212Z,1019.24
2019-02-06T11:16:18.203Z,1019.20
2019-02-06T11:17:18.202Z,1019.21
2019-02-06T11:18:18.257Z,1019.16
2019-02-06T11:19:18.173Z,1019.16
2019-02-06T11:20:18.163Z,1019.13
2019-02-06T11:21:18.162Z,1019.24
2019-02-06T11:22:18.139Z,1019.16
2019-02-06T11:23:18.132Z,1019.24
2019-02-06T11:24:18.154Z,1019.33
2019-02-06T11:25:18.103Z,1019.31
2019-02-06T11:26:18.096Z,1019.35
2019-02-06T11:27:18.081Z,1019.33
2019-02-06T11:28:18.072Z,1019.33
2019-02-06T11:29:18.061Z,1019.30
2019-02-06T11:30:18.075Z,1019.27
2019-02-06T11:31:18.056Z,1019.28
2019-02-06T11:32:18.030Z,1019.26
2019-02-06T11:33:18.018Z,1019.25
2019-02-06T11:34:18.008Z,1019.19
2019-02-06T11:35:18.032Z,1019.18
2019-02-06T11:36:24.353Z,1019.19
2019-02-06T11:37:18.973Z,1019.08
2019-02-06T11:38:17.963Z,1019.13
2019-02-06T11:39:17.951Z,1019.09
2019-02-06T11:40:17.945Z,1019.04
2019-02-06T11:41:17.955Z,1019.11
2019-02-06T11:42:17.919Z,1019.03
2019-02-06T11:43:17.924Z,1019.08
2019-02-06T11:44:17.899Z,1018.98
2019-02-06T11:45:17.886Z,1018.96
2019-02-06T11:46:17.911Z,1019.01
2019-02-06T11:47:17.864Z,1019.03
2019-02-06T11:48:17.851Z,1018.96
2019-02-06T11:49:17.841Z,1018.97
2019-02-06T11:50:17.830Z,1018.95
2019-02-06T11:51:17.819Z,1018.85
2019-02-06T11:52:17.843Z,1018.92
2019-02-06T11:53:17.807Z,1018.84
2019-02-06T11:54:17.784Z,1018.81
2019-02-06T11:55:17.780Z,1018.76
2019-02-06T11:56:17.762Z,1018.80
2019-02-06T11:57:17.754Z,1018.73
2019-02-06T11:58:17.776Z,1018.69
2019-02-06T11:59:17.828Z,1018.73
2019-02-06T12:00:17.717Z,1018.74
2019-02-06T12:01:17.707Z,1018.68
2019-02-06T12:02:17.697Z,1018.68
2019-02-06T12:03:17.689Z,1018.64
2019-02-06T12:04:17.713Z,1018.69
2019-02-06T12:05:17.665Z,1018.56